Time;durP1;ratioP1;P1;durP2;ratioP2;P2;SDS_P1;SDS_P2;PMS_P1;PMS_P2;Temp;Humidity;BMP_temperature;BMP_pressure;BME280_temperature;BME280_humidity;BME280_pressure;Samples;Min_cycle;Max_cycle;Signal;HPM_P1;HPM_P2
2022/07/05 06:10:19;;;;;;;3.30;2.00;;;;;;;;;;6201064;23;20035;-78
2022/07/05 06:12:45;;;;;;;2.65;1.98;;;;;;;;;;6216573;23;20021;-79
2022/07/05 06:15:10;;;;;;;2.33;1.80;;;;;;;;;;6214544;23;20087;-79
2022/07/05 06:17:36;;;;;;;3.80;2.22;;;;;;;;;;6216516;23;20030;-78
2022/07/05 09:15:17;;;;;;;2.58;1.70;;;;;;;;;;6210459;23;20051;-89
2022/07/05 09:17:46;;;;;;;2.15;1.55;;;;;;;;;;6217323;23;20012;-90
2022/07/05 09:20:14;;;;;;;2.65;1.48;;;;;;;;;;6217822;23;20000;-91
2022/07/05 09:22:42;;;;;;;7.97;1.58;;;;;;;;;;6215584;23;20066;-89
2022/07/05 09:25:20;;;;;;;2.80;1.80;;;;;;;;;;6216932;23;20005;-86
2022/07/05 09:27:50;;;;;;;2.15;1.45;;;;;;;;;;6217016;23;20001;-84
2022/07/05 09:30:29;;;;;;;2.53;1.38;;;;;;;;;;6217294;23;20003;-83
2022/07/05 09:33:10;;;;;;;4.53;1.80;;;;;;;;;;6217024;23;20083;-87
2022/07/05 09:35:39;;;;;;;3.15;1.65;;;;;;;;;;6218386;23;20001;-85
2022/07/05 09:38:05;;;;;;;2.03;1.55;;;;;;;;;;6216969;23;20007;-87
2022/07/05 09:40:32;;;;;;;1.75;1.65;;;;;;;;;;6217587;23;20335;-90
2022/07/05 09:43:18;;;;;;;2.97;1.52;;;;;;;;;;6216795;23;20031;-86
2022/07/05 09:46:01;;;;;;;1.90;1.50;;;;;;;;;;6216563;23;20080;-89
2022/07/05 09:48:29;;;;;;;2.08;1.38;;;;;;;;;;6216734;23;19996;-87
2022/07/05 09:51:10;;;;;;;2.92;1.45;;;;;;;;;;6189767;23;20001;-88
2022/07/05 09:53:50;;;;;;;3.22;1.95;;;;;;;;;;6216616;23;20001;-88
2022/07/05 09:56:17;;;;;;;1.60;1.48;;;;;;;;;;6216692;23;20004;-88
2022/07/05 09:58:42;;;;;;;2.95;1.63;;;;;;;;;;6216839;23;20001;-88
2022/07/05 10:01:31;;;;;;;1.95;1.45;;;;;;;;;;6216733;23;20031;-89
2022/07/05 10:04:00;;;;;;;2.53;1.70;;;;;;;;;;6217499;23;20027;-85
2022/07/05 10:06:26;;;;;;;2.28;1.30;;;;;;;;;;6216548;23;20005;-87
2022/07/05 10:08:55;;;;;;;1.70;1.52;;;;;;;;;;6216812;23;20003;-85
2022/07/05 10:11:21;;;;;;;;;;;;;;;;;;6190672;23;20423;-85
2022/07/05 10:13:48;;;;;;;2.35;1.50;;;;;;;;;;6218710;23;20236;-87
2022/07/05 10:16:19;;;;;;;2.20;1.60;;;;;;;;;;6185651;23;20020;-88
2022/07/05 10:18:46;;;;;;;2.47;1.35;;;;;;;;;;6188467;23;20004;-88
2022/07/05 10:21:16;;;;;;;1.88;1.40;;;;;;;;;;6185971;23;20001;-88
2022/07/05 10:23:47;;;;;;;1.27;1.08;;;;;;;;;;6188192;23;20372;-87
2022/07/05 10:26:14;;;;;;;1.67;1.50;;;;;;;;;;6189980;23;20043;-87
2022/07/05 10:28:41;;;;;;;2.20;1.33;;;;;;;;;;6188221;23;20015;-88
2022/07/05 10:31:10;;;;;;;1.40;1.30;;;;;;;;;;6186996;23;19997;-87
2022/07/05 10:33:36;;;;;;;2.63;1.48;;;;;;;;;;6187419;23;20055;-87
2022/07/05 10:36:03;;;;;;;2.40;1.40;;;;;;;;;;6187776;23;20012;-86
2022/07/05 10:38:29;;;;;;;1.65;1.40;;;;;;;;;;6187871;23;20412;-89
2022/07/05 10:40:59;;;;;;;1.65;1.52;;;;;;;;;;6190272;23;20310;-90
2022/07/05 10:43:25;;;;;;;4.28;1.65;;;;;;;;;;6194050;23;20001;-87
2022/07/05 10:45:52;;;;;;;2.65;1.65;;;;;;;;;;6188285;23;20324;-89
2022/07/05 10:48:22;;;;;;;1.88;1.77;;;;;;;;;;6188989;23;20001;-89
2022/07/05 10:50:54;;;;;;;1.63;1.52;;;;;;;;;;6187601;23;20076;-89
2022/07/05 10:53:40;;;;;;;3.75;1.88;;;;;;;;;;6188567;23;20001;-90
2022/07/05 10:56:06;;;;;;;2.20;1.83;;;;;;;;;;6188096;23;20063;-91
2022/07/05 10:58:36;;;;;;;1.50;1.40;;;;;;;;;;6185002;23;20009;-91
2022/07/05 11:01:20;;;;;;;2.40;1.50;;;;;;;;;;6186420;23;20024;-90
2022/07/05 11:03:57;;;;;;;1.20;1.17;;;;;;;;;;6185382;23;20017;-87
2022/07/05 11:06:27;;;;;;;2.35;1.83;;;;;;;;;;6187727;23;20028;-91
2022/07/05 11:08:59;;;;;;;2.53;2.03;;;;;;;;;;6187458;23;20327;-88
2022/07/05 11:11:35;;;;;;;1.77;1.40;;;;;;;;;;6186960;23;20336;-93
2022/07/05 11:14:03;;;;;;;3.60;1.77;;;;;;;;;;6186308;23;20004;-91
2022/07/05 11:16:34;;;;;;;1.63;1.30;;;;;;;;;;6184490;23;20013;-91
2022/07/05 11:19:08;;;;;;;2.17;1.50;;;;;;;;;;6185301;23;20486;-92
2022/07/05 11:21:36;;;;;;;4.80;1.70;;;;;;;;;;6188515;23;20408;-93
2022/07/05 11:24:22;;;;;;;2.20;1.77;;;;;;;;;;6186810;23;20076;-90
2022/07/05 11:26:49;;;;;;;1.65;1.55;;;;;;;;;;6186944;23;20008;-91
2022/07/05 11:29:40;;;;;;;2.47;1.60;;;;;;;;;;6188528;23;20040;-90
2022/07/05 11:32:07;;;;;;;2.78;1.50;;;;;;;;;;6188101;23;20011;-93
2022/07/05 11:34:36;;;;;;;2.13;1.58;;;;;;;;;;6186942;23;20068;-85
2022/07/05 11:37:14;;;;;;;2.60;1.65;;;;;;;;;;6190418;23;20008;-84
2022/07/05 11:39:40;;;;;;;1.88;1.40;;;;;;;;;;6189222;23;19997;-85
2022/07/05 11:42:08;;;;;;;2.53;1.60;;;;;;;;;;6188256;23;19997;-85
2022/07/05 11:44:34;;;;;;;2.17;1.80;;;;;;;;;;6187945;23;20032;-85
2022/07/05 17:19:17;;;;;;;1.65;1.40;;;;;;;;;;6183801;23;20013;-85
2022/07/05 17:21:42;;;;;;;1.85;1.50;;;;;;;;;;6185367;23;20036;-85
2022/07/05 17:24:08;;;;;;;3.50;1.73;;;;;;;;;;6186817;23;20320;-84
2022/07/05 17:26:33;;;;;;;1.50;1.40;;;;;;;;;;6186752;23;20384;-86
2022/07/05 17:28:59;;;;;;;3.00;1.70;;;;;;;;;;6187564;23;20005;-87
2022/07/05 17:31:25;;;;;;;3.90;1.73;;;;;;;;;;6188077;23;20001;-88
2022/07/05 17:33:50;;;;;;;3.63;1.60;;;;;;;;;;6187249;23;20005;-86
2022/07/05 17:36:17;;;;;;;2.85;1.25;;;;;;;;;;6187475;23;20332;-86
2022/07/05 17:38:44;;;;;;;2.40;1.48;;;;;;;;;;6187788;23;20059;-86
2022/07/05 17:41:12;;;;;;;2.65;2.13;;;;;;;;;;6187387;23;20015;-87
2022/07/05 17:43:50;;;;;;;3.05;2.33;;;;;;;;;;6191191;23;20032;-88
2022/07/05 17:46:18;;;;;;;2.85;1.60;;;;;;;;;;6186726;23;20328;-88
2022/07/05 17:48:45;;;;;;;2.80;1.73;;;;;;;;;;6189066;23;20005;-86
2022/07/05 17:51:10;;;;;;;3.15;1.80;;;;;;;;;;6186906;23;20062;-85
2022/07/05 17:53:37;;;;;;;3.05;1.58;;;;;;;;;;6189938;23;20001;-87
2022/07/05 17:56:03;;;;;;;3.40;1.33;;;;;;;;;;6186511;23;20025;-85
2022/07/05 17:58:29;;;;;;;2.40;1.48;;;;;;;;;;6186664;23;19993;-86
2022/07/05 18:00:55;;;;;;;2.17;1.50;;;;;;;;;;6186541;23;20005;-86
2022/07/05 18:03:21;;;;;;;2.80;1.60;;;;;;;;;;6184911;23;20420;-87
2022/07/05 18:05:47;;;;;;;2.45;1.33;;;;;;;;;;6187171;23;20368;-88
2022/07/05 18:08:13;;;;;;;1.83;1.60;;;;;;;;;;6187368;23;20005;-89
2022/07/05 18:10:40;;;;;;;2.38;1.27;;;;;;;;;;6187327;23;20004;-91
2022/07/05 18:13:06;;;;;;;3.40;1.30;;;;;;;;;;6187081;23;20067;-93
2022/07/05 18:15:31;;;;;;;1.63;1.45;;;;;;;;;;6186495;23;20421;-87
2022/07/05 18:17:58;;;;;;;1.55;1.30;;;;;;;;;;6189875;23;20009;-94
2022/07/05 18:20:23;;;;;;;2.45;1.92;;;;;;;;;;6191629;23;20015;-91
2022/07/05 18:22:49;;;;;;;3.40;1.50;;;;;;;;;;6170220;23;20005;-94
2022/07/05 18:25:15;;;;;;;2.00;1.30;;;;;;;;;;6202718;23;20000;-94
2022/07/05 18:27:41;;;;;;;3.40;2.35;;;;;;;;;;6195195;23;20021;-94
2022/07/05 18:30:08;;;;;;;4.25;2.70;;;;;;;;;;6217234;23;20005;-92
2022/07/05 18:32:33;;;;;;;2.60;2.35;;;;;;;;;;6191286;23;20005;-93
2022/07/05 18:34:59;;;;;;;2.85;1.70;;;;;;;;;;6192217;23;20035;-96
2022/07/05 18:37:25;;;;;;;2.53;1.95;;;;;;;;;;6224272;23;20000;-93
2022/07/05 18:39:50;;;;;;;2.15;1.63;;;;;;;;;;6192780;23;20008;-88
2022/07/05 18:42:16;;;;;;;2.72;1.77;;;;;;;;;;6193433;23;20336;-96
2022/07/05 18:44:41;;;;;;;2.58;1.60;;;;;;;;;;6193635;23;20438;-92
2022/07/05 18:47:08;;;;;;;4.55;1.75;;;;;;;;;;6218553;23;19997;-94
2022/07/05 18:49:36;;;;;;;2.17;1.50;;;;;;;;;;6191338;23;20327;-91
2022/07/05 18:52:02;;;;;;;2.78;1.17;;;;;;;;;;6217530;23;20004;-94
2022/07/05 18:54:27;;;;;;;1.67;1.50;;;;;;;;;;6190865;23;20043;-93
2022/07/05 18:56:53;;;;;;;2.28;1.92;;;;;;;;;;6190320;23;20055;-95
2022/07/05 18:59:18;;;;;;;3.22;1.80;;;;;;;;;;6190471;23;20012;-94
2022/07/05 19:01:44;;;;;;;2.00;1.80;;;;;;;;;;6190889;23;20008;-93
2022/07/05 19:04:09;;;;;;;3.45;1.70;;;;;;;;;;6218014;23;20047;-92
2022/07/05 19:14:55;;;;;;;2.70;1.48;;;;;;;;;;6194510;23;20001;-93
2022/07/05 19:17:20;;;;;;;2.38;1.20;;;;;;;;;;6192223;23;20015;-93
2022/07/05 19:19:46;;;;;;;1.40;1.30;;;;;;;;;;6217608;23;20016;-94
2022/07/05 19:22:11;;;;;;;1.30;1.20;;;;;;;;;;6191682;23;20535;-92
2022/07/05 19:24:38;;;;;;;4.25;1.90;;;;;;;;;;6218576;23;20023;-91
2022/07/05 19:27:04;;;;;;;1.45;1.27;;;;;;;;;;6217962;23;20004;-94
2022/07/05 19:29:29;;;;;;;2.85;2.03;;;;;;;;;;6192699;23;20004;-94
2022/07/05 19:31:57;;;;;;;2.95;1.50;;;;;;;;;;6193745;23;20005;-91
2022/07/05 19:34:23;;;;;;;3.45;2.00;;;;;;;;;;6216222;23;20335;-91
2022/07/05 19:36:49;;;;;;;2.65;1.65;;;;;;;;;;6190281;23;20049;-90
2022/07/05 19:39:14;;;;;;;3.30;2.28;;;;;;;;;;6217027;23;19993;-90
2022/07/05 19:41:40;;;;;;;1.92;1.48;;;;;;;;;;6193437;23;20061;-89
2022/07/05 19:44:05;;;;;;;5.10;1.33;;;;;;;;;;6219081;23;20328;-89
2022/07/05 19:46:31;;;;;;;2.83;1.30;;;;;;;;;;6218863;23;20004;-89
2022/07/05 19:48:56;;;;;;;1.85;1.33;;;;;;;;;;6218781;23;20060;-89
2022/07/05 19:51:21;;;;;;;2.00;1.60;;;;;;;;;;6218410;23;20054;-90
2022/07/05 19:53:47;;;;;;;2.95;1.67;;;;;;;;;;6191586;23;20006;-89
2022/07/05 19:56:12;;;;;;;2.10;1.45;;;;;;;;;;6218770;23;20004;-79
2022/07/05 19:58:38;;;;;;;2.08;1.30;;;;;;;;;;6218990;23;20051;-88
2022/07/05 20:01:04;;;;;;;2.20;1.63;;;;;;;;;;6218409;23;20004;-90
2022/07/05 20:03:30;;;;;;;1.45;1.13;;;;;;;;;;6219688;23;20481;-93
2022/07/05 20:05:55;;;;;;;1.80;1.23;;;;;;;;;;6222186;23;20329;-93
2022/07/05 20:08:22;;;;;;;1.42;1.33;;;;;;;;;;6228555;23;20000;-92
2022/07/05 20:10:49;;;;;;;2.22;1.50;;;;;;;;;;6200605;23;20024;-87
2022/07/05 20:13:15;;;;;;;3.72;2.92;;;;;;;;;;6217947;23;20055;-85
2022/07/05 20:15:40;;;;;;;3.25;1.85;;;;;;;;;;6217907;23;20016;-83
2022/07/05 20:18:06;;;;;;;2.20;2.00;;;;;;;;;;6218650;23;20021;-87
2022/07/05 20:20:31;;;;;;;1.45;1.33;;;;;;;;;;6219612;23;20332;-86
2022/07/05 20:22:57;;;;;;;2.25;1.08;;;;;;;;;;6218531;23;19996;-85
2022/07/05 20:25:22;;;;;;;1.48;1.30;;;;;;;;;;6219362;23;20007;-87
2022/07/05 20:27:48;;;;;;;1.30;1.13;;;;;;;;;;6205156;23;20005;-92
2022/07/05 20:30:15;;;;;;;2.67;1.20;;;;;;;;;;6203334;23;20004;-90
2022/07/05 20:32:41;;;;;;;1.70;1.15;;;;;;;;;;6205217;23;20036;-91
2022/07/05 20:35:07;;;;;;;2.22;1.42;;;;;;;;;;6203547;23;20005;-93
2022/07/05 20:37:34;;;;;;;3.67;1.83;;;;;;;;;;6232451;23;20000;-91
2022/07/05 20:40:00;;;;;;;1.60;1.17;;;;;;;;;;6234971;23;20060;-91
2022/07/05 20:42:25;;;;;;;5.50;1.50;;;;;;;;;;6172745;23;20336;-91
2022/07/05 20:44:51;;;;;;;5.63;1.75;;;;;;;;;;6193740;23;20088;-94
2022/07/05 20:47:17;;;;;;;2.90;1.70;;;;;;;;;;6172809;23;20039;-92
2022/07/05 20:49:42;;;;;;;4.10;1.58;;;;;;;;;;6195561;23;20386;-92
2022/07/05 20:52:07;;;;;;;4.10;1.45;;;;;;;;;;6195086;23;20010;-94
2022/07/05 20:54:33;;;;;;;2.97;1.50;;;;;;;;;;6194825;23;20012;-93
2022/07/05 20:56:58;;;;;;;3.63;1.20;;;;;;;;;;6194564;23;20070;-93
2022/07/05 20:59:24;;;;;;;5.18;1.58;;;;;;;;;;6195143;23;20005;-93
2022/07/05 21:01:49;;;;;;;2.45;1.80;;;;;;;;;;6193095;23;20023;-94
2022/07/05 21:04:15;;;;;;;1.42;1.25;;;;;;;;;;6191761;23;20031;-92
2022/07/05 21:06:40;;;;;;;2.38;1.17;;;;;;;;;;6193758;23;20009;-93
2022/07/05 21:09:06;;;;;;;6.43;1.55;;;;;;;;;;6194238;23;20063;-93
2022/07/05 21:11:31;;;;;;;2.00;0.90;;;;;;;;;;6195338;23;20008;-93
2022/07/05 21:13:56;;;;;;;1.40;1.10;;;;;;;;;;6195392;23;20000;-93
2022/07/05 21:16:22;;;;;;;1.45;1.25;;;;;;;;;;6192954;23;20432;-94
2022/07/05 21:18:47;;;;;;;1.50;1.38;;;;;;;;;;6187499;23;20009;-94
2022/07/05 21:21:13;;;;;;;1.33;1.15;;;;;;;;;;6187284;23;20032;-95
2022/07/05 21:23:38;;;;;;;1.20;1.10;;;;;;;;;;6187222;23;20009;-94
2022/07/05 21:26:04;;;;;;;2.00;1.10;;;;;;;;;;6187163;23;20000;-94
2022/07/05 21:28:29;;;;;;;3.65;1.10;;;;;;;;;;6186980;23;20005;-94
2022/07/05 21:30:57;;;;;;;1.40;1.02;;;;;;;;;;6187312;23;20325;-94
2022/07/05 21:33:24;;;;;;;2.42;1.30;;;;;;;;;;6187198;23;20008;-94
2022/07/05 21:35:50;;;;;;;2.97;1.35;;;;;;;;;;6187314;23;20009;-94
2022/07/05 21:38:15;;;;;;;2.00;0.98;;;;;;;;;;6187565;23;20063;-95
2022/07/05 21:40:41;;;;;;;1.95;1.23;;;;;;;;;;6189296;23;20009;-96
2022/07/05 21:43:06;;;;;;;0.95;0.95;;;;;;;;;;6188352;23;20005;-94
2022/07/05 21:45:32;;;;;;;2.88;1.10;;;;;;;;;;6187709;23;20035;-95
2022/07/05 21:47:57;;;;;;;1.63;1.25;;;;;;;;;;6162868;23;20032;-95
2022/07/05 21:50:23;;;;;;;3.58;1.30;;;;;;;;;;6187201;23;20005;-95
2022/07/05 21:52:48;;;;;;;2.92;1.50;;;;;;;;;;6187139;23;20007;-95
2022/07/05 21:55:14;;;;;;;3.90;1.45;;;;;;;;;;6187394;23;20088;-94
2022/07/05 21:57:39;;;;;;;3.85;1.77;;;;;;;;;;6187750;23;20008;-93
